首页
METAR-TAF:

METAR-TAF

机场 :

Estherville Municipal Airport

Estherville, 艾奥瓦州, 美国

纬度: 43-24-04N, 经度: 094-44-50W, 海拔: 401米

当前天气观测

该预报发布于21分钟前的18:52 UTC
风速14节,风向,有时为18节阵风
温度 22°C
湿度 53%
气压 1025 hPa
能見度: 16.1公里
天空无云

METAR: KEST 221852Z AUTO 01014G18KT 10SM CLR 22/12 A3027 RMK AO2 SLP246 T02220117

时间: 14:13 (19:13 UTC)


TAF: 丢失

超过4000个机场的气象观测和天气预报(METAR&TAF报告)。

可查询的气象台以黄色和红色小点在地图上表示。

将鼠标移到小点上方,可查看气象台名称。

然后点击查看天气观测和预报。

如需切换地图:点击带黑十字的绿色按钮放大地图;点击带横线的绿色按钮缩小地图;或者点击绿色箭头查看邻近地区的地图。


METAR-TAF: